Time;durP1;ratioP1;P1;durP2;ratioP2;P2;SDS_P1;SDS_P2;PMS_P1;PMS_P2;Temp;Humidity;BMP_temperature;BMP_pressure;BME280_temperature;BME280_humidity;BME280_pressure;Samples;Min_cycle;Max_cycle;Signal;HPM_P1;HPM_P2
2022/04/22 00:03:31;;;;;;;0.00;0.00;;;;;;;-145.06;100.00;63404.56;10380595;28;20067;-90
2022/04/22 00:08:31;;;;;;;0.00;0.00;;;;;;;-145.06;100.00;63404.56;10406721;28;20340;-89
2022/04/22 00:13:32;;;;;;;0.00;0.00;;;;;;;-145.06;100.00;63404.56;10382304;28;20550;-90
2022/04/22 00:18:33;;;;;;;0.00;0.00;;;;;;;-145.06;100.00;63404.56;10381239;28;20071;-90
2022/04/22 00:23:33;;;;;;;0.00;0.00;;;;;;;-145.06;100.00;63404.56;10377786;28;20392;-90
2022/04/22 00:28:34;;;;;;;0.00;0.00;;;;;;;-145.06;100.00;63404.56;10386328;28;20018;-90
2022/04/22 00:33:35;;;;;;;0.00;0.00;;;;;;;-145.06;100.00;63404.56;10395857;28;20572;-90
2022/04/22 00:38:35;;;;;;;0.00;0.00;;;;;;;-145.06;100.00;63404.56;10376951;28;20022;-90
2022/04/22 00:43:45;;;;;;;0.00;0.00;;;;;;;-145.06;100.00;63404.56;10380193;28;20109;-89
2022/04/22 00:48:45;;;;;;;0.00;0.00;;;;;;;-145.06;100.00;63404.56;10376959;28;20083;-90
2022/04/22 00:53:49;;;;;;;0.00;0.00;;;;;;;-145.06;100.00;63404.56;10378721;28;20030;-91
2022/04/22 00:58:50;;;;;;;0.00;0.00;;;;;;;-145.06;100.00;63404.56;10382402;28;20017;-91
2022/04/22 01:14:28;;;;;;;0.00;0.00;;;;;;;-145.06;100.00;63404.56;10392663;28;20104;-90
2022/04/22 01:19:28;;;;;;;0.00;0.00;;;;;;;-145.06;100.00;63404.56;10378330;28;20018;-91
2022/04/22 01:24:29;;;;;;;0.00;0.00;;;;;;;-145.06;100.00;63404.56;10396359;28;20109;-91
2022/04/22 01:29:29;;;;;;;0.00;0.00;;;;;;;-145.06;100.00;63404.56;10384760;28;20017;-92
2022/04/22 01:34:29;;;;;;;0.00;0.00;;;;;;;-145.06;100.00;63404.56;10379418;28;20486;-91
2022/04/22 01:39:30;;;;;;;0.00;0.00;;;;;;;-145.06;100.00;63404.56;10376802;28;20028;-90
2022/04/22 01:44:30;;;;;;;0.00;0.00;;;;;;;-145.06;100.00;63404.56;10375826;28;20017;-91
2022/04/22 01:49:31;;;;;;;0.00;0.00;;;;;;;-145.06;100.00;63404.56;10376783;28;20280;-91
2022/04/22 01:54:31;;;;;;;0.00;0.00;;;;;;;-145.06;100.00;63404.56;10378851;28;20123;-90
2022/04/22 01:59:32;;;;;;;0.00;0.00;;;;;;;-145.06;100.00;63404.56;10379053;28;20024;-91
2022/04/22 02:04:32;;;;;;;0.00;0.00;;;;;;;-145.06;100.00;63404.56;10396451;28;20033;-90
2022/04/22 02:09:32;;;;;;;0.08;0.08;;;;;;;-145.06;100.00;63404.56;10375804;28;20054;-90
2022/04/22 02:14:33;;;;;;;0.00;0.00;;;;;;;-145.06;100.00;63404.56;10374896;28;20037;-90
2022/04/22 02:19:34;;;;;;;0.00;0.00;;;;;;;-145.06;100.00;63404.56;10376288;28;20076;-90
2022/04/22 02:24:34;;;;;;;0.00;0.00;;;;;;;-145.06;100.00;63404.56;10378846;28;20077;-91
2022/04/22 02:29:37;;;;;;;0.00;0.00;;;;;;;-145.06;100.00;63404.56;10376952;28;20272;-90
2022/04/22 02:34:37;;;;;;;0.00;0.00;;;;;;;-145.06;100.00;63404.56;10375372;28;20024;-90
2022/04/22 02:39:37;;;;;;;0.00;0.00;;;;;;;-145.06;100.00;63404.56;10391553;28;20022;-91
2022/04/22 02:49:56;;;;;;;0.00;0.00;;;;;;;-145.06;100.00;63404.56;10400487;28;20272;-91
2022/04/22 02:54:57;;;;;;;0.00;0.00;;;;;;;-145.06;100.00;63404.56;10381926;28;20237;-90
2022/04/22 02:59:57;;;;;;;0.00;0.00;;;;;;;-145.06;100.00;63404.56;10405167;28;20030;-89
2022/04/22 03:04:58;;;;;;;0.03;0.03;;;;;;;-145.06;100.00;63404.56;10380183;28;20026;-90
2022/04/22 03:09:58;;;;;;;0.00;0.00;;;;;;;-145.06;100.00;63404.56;10438219;22;20326;-91
2022/04/22 03:14:58;;;;;;;0.00;0.00;;;;;;;-145.06;100.00;63404.56;10442083;28;20025;-92
2022/04/22 03:19:59;;;;;;;0.00;0.00;;;;;;;-145.06;100.00;63404.56;10435819;28;20496;-92
2022/04/22 03:25:00;;;;;;;0.00;0.00;;;;;;;-145.06;100.00;63404.56;10435299;28;20033;-92
2022/04/22 03:30:02;;;;;;;0.00;0.00;;;;;;;-145.06;100.00;63404.56;10435043;28;20364;-92
2022/04/22 03:35:03;;;;;;;0.10;0.10;;;;;;;-145.06;100.00;63404.56;10433093;28;20097;-93
2022/04/22 03:40:05;;;;;;;0.00;0.00;;;;;;;-145.06;100.00;63404.56;10432086;28;20526;-91
2022/04/22 03:45:06;;;;;;;0.10;0.10;;;;;;;-145.06;100.00;63404.56;10425692;28;20017;-92
2022/04/22 03:50:07;;;;;;;0.00;0.00;;;;;;;-145.06;100.00;63404.56;10432660;28;20017;-91
2022/04/22 03:55:08;;;;;;;0.10;0.10;;;;;;;-145.06;100.00;63404.56;10427725;28;20025;-92
2022/04/22 04:00:09;;;;;;;0.00;0.00;;;;;;;-145.06;100.00;63404.56;10416152;28;20629;-89
2022/04/22 04:05:10;;;;;;;0.05;0.05;;;;;;;-145.06;100.00;63404.56;10418480;28;20021;-91
2022/04/22 04:26:08;;;;;;;0.00;0.00;;;;;;;-145.06;100.00;63404.56;10441159;28;20432;-93
2022/04/22 04:31:11;;;;;;;0.00;0.00;;;;;;;-145.06;100.00;63404.56;10423837;28;20025;-92
2022/04/22 04:36:12;;;;;;;0.10;0.10;;;;;;;-145.06;100.00;63404.56;10421143;28;20022;-93
2022/04/22 04:41:13;;;;;;;0.00;0.00;;;;;;;-145.06;100.00;63404.56;10423846;28;20023;-92
2022/04/22 04:46:13;;;;;;;0.00;0.00;;;;;;;-145.06;100.00;63404.56;10425104;28;20041;-93
2022/04/22 04:51:13;;;;;;;0.00;0.00;;;;;;;-145.06;100.00;63404.56;10425723;28;20041;-92
2022/04/22 04:56:14;;;;;;;0.00;0.00;;;;;;;-145.06;100.00;63404.56;10425686;28;20396;-93
2022/04/22 05:01:14;;;;;;;0.00;0.00;;;;;;;-145.06;100.00;63404.56;10421211;28;20905;-92
2022/04/22 05:06:15;;;;;;;0.00;0.00;;;;;;;-145.06;100.00;63404.56;10407696;28;20112;-92
2022/04/22 05:11:15;;;;;;;0.10;0.10;;;;;;;-145.06;100.00;63404.56;10415706;28;20052;-92
2022/04/22 05:16:15;;;;;;;0.10;0.10;;;;;;;-145.06;100.00;63404.56;10401648;28;20640;-92
2022/04/22 05:21:16;;;;;;;0.03;0.03;;;;;;;-145.06;100.00;63404.56;10417030;28;20019;-92
2022/04/22 05:26:16;;;;;;;0.10;0.10;;;;;;;-145.06;100.00;63404.56;10414941;28;20485;-93
2022/04/22 05:36:35;;;;;;;0.10;0.10;;;;;;;-145.06;100.00;63404.56;10438188;28;20436;-93
2022/04/22 05:41:35;;;;;;;0.10;0.10;;;;;;;-145.06;100.00;63404.56;10415336;28;20025;-92
2022/04/22 05:46:36;;;;;;;0.10;0.10;;;;;;;-145.06;100.00;63404.56;10417858;28;20472;-92
2022/04/22 05:58:03;;;;;;;0.00;0.00;;;;;;;-145.06;100.00;63404.56;10242146;28;20019;-92
2022/04/22 06:03:03;;;;;;;0.10;0.10;;;;;;;-145.06;100.00;63404.56;10330068;28;20029;-92
2022/04/22 06:13:25;;;;;;;0.10;0.10;;;;;;;-145.06;100.00;63404.56;10434623;28;20480;-91
2022/04/22 06:18:26;;;;;;;0.10;0.10;;;;;;;-145.06;100.00;63404.56;10424576;28;20025;-93
2022/04/22 06:23:26;;;;;;;0.10;0.10;;;;;;;-145.06;100.00;63404.56;10429161;28;20553;-92
2022/04/22 06:28:27;;;;;;;0.10;0.10;;;;;;;-145.06;100.00;63404.56;10414093;28;20041;-92
2022/04/22 06:33:27;;;;;;;0.10;0.10;;;;;;;-145.06;100.00;63404.56;10429697;28;20032;-93
2022/04/22 06:38:28;;;;;;;0.10;0.10;;;;;;;-145.06;100.00;63404.56;10432336;28;20036;-93
2022/04/22 06:48:49;;;;;;;0.10;0.10;;;;;;;-145.06;100.00;63404.56;10450165;28;20033;-92
2022/04/22 06:53:52;;;;;;;0.10;0.10;;;;;;;-145.06;100.00;63404.56;10432039;28;20466;-93
2022/04/22 06:58:52;;;;;;;0.10;0.10;;;;;;;-145.06;100.00;63404.56;10432945;28;20080;-91
2022/04/22 07:03:53;;;;;;;0.10;0.10;;;;;;;-145.06;100.00;63404.56;10445626;28;20048;-90
2022/04/22 07:08:54;;;;;;;0.10;0.10;;;;;;;-145.06;100.00;63404.56;10429994;28;20037;-91
2022/04/22 07:13:57;;;;;;;0.10;0.10;;;;;;;-145.06;100.00;63404.56;10414173;28;20044;-90
2022/04/22 07:18:59;;;;;;;0.10;0.10;;;;;;;-145.06;100.00;63404.56;10420023;28;20072;-90
2022/04/22 07:23:59;;;;;;;0.10;0.10;;;;;;;-145.06;100.00;63404.56;10435717;28;20045;-91
2022/04/22 07:29:01;;;;;;;0.10;0.10;;;;;;;-145.06;100.00;63404.56;10424480;28;20036;-91
2022/04/22 07:34:01;;;;;;;0.10;0.10;;;;;;;-145.06;100.00;63404.56;10425264;28;20064;-91
2022/04/22 07:39:02;;;;;;;0.15;0.15;;;;;;;-145.06;100.00;63404.56;10434532;28;20018;-93
2022/04/22 07:49:22;;;;;;;0.10;0.10;;;;;;;-145.06;100.00;63404.56;10449723;28;20489;-94
2022/04/22 07:54:23;;;;;;;0.20;0.20;;;;;;;-145.06;100.00;63404.56;10432623;28;20022;-92
2022/04/22 07:59:25;;;;;;;0.10;0.10;;;;;;;-145.06;100.00;63404.56;10433399;28;20121;-92
2022/04/22 08:04:25;;;;;;;0.10;0.10;;;;;;;-145.06;100.00;63404.56;10415979;28;20404;-91
2022/04/22 08:09:26;;;;;;;0.10;0.10;;;;;;;-145.06;100.00;63404.56;10432765;28;20029;-92
2022/04/22 08:14:27;;;;;;;0.07;0.07;;;;;;;-145.06;100.00;63404.56;10412567;28;20075;-91
2022/04/22 08:19:27;;;;;;;0.10;0.10;;;;;;;-145.06;100.00;63404.56;10430016;28;20056;-92
2022/04/22 08:24:28;;;;;;;0.10;0.10;;;;;;;-145.06;100.00;63404.56;10430888;28;20409;-91
2022/04/22 08:29:28;;;;;;;0.10;0.10;;;;;;;-145.06;100.00;63404.56;10417696;28;20352;-92
2022/04/22 08:34:28;;;;;;;0.10;0.10;;;;;;;-145.06;100.00;63404.56;10439250;28;20040;-92
2022/04/22 08:39:29;;;;;;;0.10;0.10;;;;;;;-145.06;100.00;63404.56;10423537;28;20081;-92
2022/04/22 08:44:36;;;;;;;0.10;0.10;;;;;;;-145.06;100.00;63404.56;10426548;28;20020;-93
2022/04/22 08:54:56;;;;;;;0.10;0.10;;;;;;;-145.06;100.00;63404.56;10459428;28;20036;-92
2022/04/22 09:00:01;;;;;;;0.13;0.13;;;;;;;-145.06;100.00;63404.56;10458144;28;20012;-91
2022/04/22 09:05:01;;;;;;;0.10;0.10;;;;;;;-145.06;100.00;63404.56;10444659;28;20033;-92
2022/04/22 09:10:02;;;;;;;0.10;0.10;;;;;;;-145.06;100.00;63404.56;10429901;28;20029;-95
2022/04/22 09:15:03;;;;;;;0.08;0.08;;;;;;;-145.06;100.00;63404.56;10427291;28;20029;-91
2022/04/22 09:20:05;;;;;;;0.10;0.10;;;;;;;-145.06;100.00;63404.56;10408181;28;20029;-92
2022/04/22 09:25:06;;;;;;;0.10;0.10;;;;;;;-145.06;100.00;63404.56;10441849;28;20023;-92
2022/04/22 09:30:09;;;;;;;0.10;0.10;;;;;;;-145.06;100.00;63404.56;10424572;28;20121;-91
2022/04/22 09:35:17;;;;;;;0.10;0.10;;;;;;;-145.06;100.00;63404.56;10430628;28;20021;-92
2022/04/22 09:45:41;;;;;;;0.10;0.10;;;;;;;-145.06;100.00;63404.56;10446506;28;20026;-92
2022/04/22 09:50:46;;;;;;;0.10;0.10;;;;;;;-145.06;100.00;63404.56;10439051;28;20025;-91
2022/04/22 09:55:48;;;;;;;0.10;0.10;;;;;;;-145.06;100.00;63404.56;10434144;28;20025;-92
2022/04/22 10:00:54;;;;;;;0.10;0.10;;;;;;;-145.06;100.00;63404.56;10450657;28;20027;-92
2022/04/22 10:05:56;;;;;;;0.10;0.10;;;;;;;-145.06;100.00;63404.56;10440108;28;20063;-93
2022/04/22 10:11:02;;;;;;;0.00;0.00;;;;;;;-145.06;100.00;63404.56;10423438;28;20049;-94
2022/04/22 10:16:04;;;;;;;0.10;0.10;;;;;;;-145.06;100.00;63404.56;10414041;28;20035;-93
2022/04/22 10:21:06;;;;;;;0.10;0.10;;;;;;;-145.06;100.00;63404.56;10427325;28;20028;-93
2022/04/22 10:26:07;;;;;;;0.10;0.10;;;;;;;-145.06;100.00;63404.56;10418775;28;20029;-94
2022/04/22 10:31:08;;;;;;;0.10;0.10;;;;;;;-145.06;100.00;63404.56;10423055;28;20075;-93
2022/04/22 10:36:13;;;;;;;0.10;0.10;;;;;;;-145.06;100.00;63404.56;10416757;28;20087;-93
2022/04/22 10:41:21;;;;;;;0.10;0.10;;;;;;;-145.06;100.00;63404.56;10411131;28;20025;-93
2022/04/22 10:52:10;;;;;;;0.10;0.10;;;;;;;-145.06;100.00;63404.56;10463655;28;20060;-93
2022/04/22 10:57:31;;;;;;;0.10;0.10;;;;;;;-145.06;100.00;63404.56;10438792;28;20088;-93
2022/04/22 11:02:42;;;;;;;0.10;0.10;;;;;;;-145.06;100.00;63404.56;10425430;28;20026;-93
2022/04/22 11:07:56;;;;;;;0.10;0.10;;;;;;;-145.06;100.00;63404.56;10432950;28;20047;-93
2022/04/22 11:13:01;;;;;;;0.10;0.10;;;;;;;-145.06;100.00;63404.56;10457699;28;20093;-93
2022/04/22 11:18:02;;;;;;;0.03;0.03;;;;;;;-145.06;100.00;63404.56;10441631;28;20025;-93
2022/04/22 11:23:04;;;;;;;0.10;0.10;;;;;;;-145.06;100.00;63404.56;10442073;28;20029;-93
2022/04/22 11:28:07;;;;;;;0.10;0.10;;;;;;;-145.06;100.00;63404.56;10441559;28;20091;-93
2022/04/22 11:33:24;;;;;;;0.10;0.10;;;;;;;-145.06;100.00;63404.56;10444252;28;20029;-93
2022/04/22 11:38:26;;;;;;;0.10;0.10;;;;;;;-145.06;100.00;63404.56;10437956;28;20029;-94
2022/04/22 11:43:29;;;;;;;0.10;0.10;;;;;;;-145.06;100.00;63404.56;10445926;28;20094;-93
2022/04/22 11:48:30;;;;;;;0.10;0.10;;;;;;;-145.06;100.00;63404.56;10438868;28;20088;-93
2022/04/22 11:53:32;;;;;;;0.10;0.10;;;;;;;-145.06;100.00;63404.56;10443814;28;20029;-93
2022/04/22 11:58:33;;;;;;;0.10;0.10;;;;;;;-145.06;100.00;63404.56;10439909;28;20076;-92
2022/04/22 12:08:56;;;;;;;0.00;0.00;;;;;;;-145.06;100.00;63404.56;10454863;28;20485;-93
2022/04/22 12:13:58;;;;;;;0.10;0.10;;;;;;;-145.06;100.00;63404.56;10434706;28;20494;-92
2022/04/22 12:19:00;;;;;;;0.10;0.10;;;;;;;-145.06;100.00;63404.56;10438237;28;20036;-94
2022/04/22 12:24:03;;;;;;;0.10;0.10;;;;;;;-145.06;100.00;63404.56;10438300;28;20037;-93
2022/04/22 12:29:22;;;;;;;0.10;0.10;;;;;;;-145.06;100.00;63404.56;10448948;28;20021;-92
2022/04/22 12:34:35;;;;;;;0.10;0.10;;;;;;;-145.06;100.00;63404.56;10453987;28;20017;-92
2022/04/22 12:39:35;;;;;;;0.10;0.10;;;;;;;-145.06;100.00;63404.56;10465516;28;20469;-93
2022/04/22 12:44:35;;;;;;;0.10;0.10;;;;;;;-145.06;100.00;63404.56;10450907;28;20067;-93
2022/04/22 12:55:08;;;;;;;0.10;0.10;;;;;;;-145.06;100.00;63404.56;10462956;28;20032;-92
2022/04/22 13:00:19;;;;;;;0.10;0.10;;;;;;;-145.06;100.00;63404.56;10443389;28;20028;-93
2022/04/22 13:05:22;;;;;;;0.10;0.10;;;;;;;-145.06;100.00;63404.56;10469362;28;20029;-93
2022/04/22 13:10:25;;;;;;;0.10;0.10;;;;;;;-145.06;100.00;63404.56;10455051;28;20041;-93
2022/04/22 13:15:26;;;;;;;0.10;0.10;;;;;;;-145.06;100.00;63404.56;10440743;28;20033;-94
2022/04/22 13:20:26;;;;;;;0.10;0.10;;;;;;;-145.06;100.00;63404.56;10445857;28;20400;-94
2022/04/22 13:25:26;;;;;;;0.10;0.10;;;;;;;-145.06;100.00;63404.56;10449980;28;20017;-93
2022/04/22 13:30:27;;;;;;;0.10;0.10;;;;;;;-145.06;100.00;63404.56;10441199;28;20020;-93
2022/04/22 13:35:28;;;;;;;0.10;0.10;;;;;;;-145.06;100.00;63404.56;10436998;28;20107;-93
2022/04/22 13:40:28;;;;;;;0.20;0.20;;;;;;;-145.06;100.00;63404.56;10442988;28;20016;-93
2022/04/22 13:56:06;;;;;;;0.10;0.10;;;;;;;-145.06;100.00;63404.56;10448634;28;20517;-93
2022/04/22 14:01:07;;;;;;;0.10;0.10;;;;;;;-145.06;100.00;63404.56;10438046;28;20009;-94
2022/04/22 14:06:07;;;;;;;0.10;0.10;;;;;;;-145.06;100.00;63404.56;10447917;28;20017;-92
2022/04/22 14:11:08;;;;;;;0.10;0.10;;;;;;;-145.06;100.00;63404.56;10426048;28;20029;-92
2022/04/22 14:16:08;;;;;;;0.10;0.10;;;;;;;-145.06;100.00;63404.56;10435238;28;20048;-92
2022/04/22 14:21:09;;;;;;;0.10;0.10;;;;;;;-145.06;100.00;63404.56;10456863;28;20020;-92
2022/04/22 14:26:12;;;;;;;0.10;0.10;;;;;;;-145.06;100.00;63404.56;10434151;28;20032;-92
2022/04/22 14:31:12;;;;;;;0.10;0.10;;;;;;;-145.06;100.00;63404.56;10435225;28;20122;-93
2022/04/22 14:36:13;;;;;;;0.10;0.10;;;;;;;-145.06;100.00;63404.56;10427957;28;20017;-93
2022/04/22 14:41:17;;;;;;;0.10;0.10;;;;;;;-145.06;100.00;63404.56;10428083;28;20043;-92
2022/04/22 14:46:18;;;;;;;0.10;0.10;;;;;;;-145.06;100.00;63404.56;10455166;28;20063;-93
2022/04/22 14:51:18;;;;;;;0.10;0.10;;;;;;;-145.06;100.00;63404.56;10439141;28;20021;-93
2022/04/22 14:56:20;;;;;;;0.10;0.10;;;;;;;-145.06;100.00;63404.56;10429189;28;20267;-93
2022/04/22 15:01:20;;;;;;;0.10;0.10;;;;;;;-145.06;100.00;63404.56;10434807;28;20271;-92
2022/04/22 15:06:21;;;;;;;0.10;0.10;;;;;;;-145.06;100.00;63404.56;10444761;28;20031;-92
2022/04/22 15:11:21;;;;;;;0.10;0.10;;;;;;;-145.06;100.00;63404.56;10504651;22;20140;-86
2022/04/22 15:16:25;;;;;;;0.10;0.10;;;;;;;-145.06;100.00;63404.56;10468264;28;20646;-86
2022/04/22 15:26:45;;;;;;;0.10;0.10;;;;;;;-145.06;100.00;63404.56;10415678;28;20029;-85
2022/04/22 15:31:45;;;;;;;0.10;0.10;;;;;;;-145.06;100.00;63404.56;10416447;28;20065;-84
2022/04/22 15:36:46;;;;;;;0.10;0.10;;;;;;;-145.06;100.00;63404.56;10409269;28;20051;-84
2022/04/22 15:41:46;;;;;;;0.10;0.10;;;;;;;-145.06;100.00;63404.56;10405257;28;20604;-84
2022/04/22 15:46:47;;;;;;;0.10;0.10;;;;;;;-145.06;100.00;63404.56;10437221;28;20018;-85
2022/04/22 15:51:47;;;;;;;0.10;0.10;;;;;;;-145.06;100.00;63404.56;10426033;28;20314;-84
2022/04/22 15:56:48;;;;;;;0.10;0.10;;;;;;;-145.06;100.00;63404.56;10435898;28;20097;-84
2022/04/22 16:01:51;;;;;;;0.10;0.10;;;;;;;-145.06;100.00;63404.56;10438684;28;20163;-86
2022/04/22 16:06:52;;;;;;;0.10;0.10;;;;;;;-145.06;100.00;63404.56;10436043;28;20029;-85
2022/04/22 16:17:12;;;;;;;0.10;0.10;;;;;;;-145.06;100.00;63404.56;10436241;28;20033;-84
2022/04/22 16:22:13;;;;;;;0.10;0.10;;;;;;;-145.06;100.00;63404.56;10444283;28;20032;-84
2022/04/22 16:27:13;;;;;;;0.00;0.00;;;;;;;-145.06;100.00;63404.56;10436101;28;20397;-86
2022/04/22 16:32:13;;;;;;;0.10;0.10;;;;;;;-145.06;100.00;63404.56;10432650;28;20025;-86
2022/04/22 16:37:13;;;;;;;0.10;0.10;;;;;;;-145.06;100.00;63404.56;10428459;28;20036;-85
2022/04/22 16:42:14;;;;;;;0.10;0.10;;;;;;;-145.06;100.00;63404.56;10430180;28;20104;-86
2022/04/22 16:47:14;;;;;;;0.10;0.10;;;;;;;-145.06;100.00;63404.56;10412423;28;20045;-85
2022/04/22 16:52:15;;;;;;;0.10;0.10;;;;;;;-145.06;100.00;63404.56;10412141;28;20060;-85
2022/04/22 16:57:15;;;;;;;0.10;0.10;;;;;;;-145.06;100.00;63404.56;10413493;28;20021;-85
2022/04/22 17:02:17;;;;;;;0.10;0.10;;;;;;;-145.06;100.00;63404.56;10414340;28;20043;-85
2022/04/22 17:07:18;;;;;;;0.10;0.10;;;;;;;-145.06;100.00;63404.56;10427434;28;20021;-86
2022/04/22 17:12:18;;;;;;;0.10;0.10;;;;;;;-145.06;100.00;63404.56;10432985;28;20051;-85
2022/04/22 17:22:40;;;;;;;0.10;0.10;;;;;;;-145.06;100.00;63404.56;10435972;28;20025;-85
2022/04/22 17:27:44;;;;;;;0.10;0.10;;;;;;;-145.06;100.00;63404.56;10427172;28;20017;-85
2022/04/22 17:32:44;;;;;;;0.10;0.10;;;;;;;-145.06;100.00;63404.56;10430242;28;20031;-87
2022/04/22 17:37:45;;;;;;;0.10;0.10;;;;;;;-145.06;100.00;63404.56;10412083;28;20029;-84
2022/04/22 17:42:46;;;;;;;0.10;0.10;;;;;;;-145.06;100.00;63404.56;10429938;28;20037;-85
2022/04/22 17:47:46;;;;;;;0.10;0.10;;;;;;;-145.06;100.00;63404.56;10412548;28;20041;-85
2022/04/22 17:52:47;;;;;;;0.10;0.10;;;;;;;-145.06;100.00;63404.56;10416107;28;20042;-85
2022/04/22 17:57:49;;;;;;;0.05;0.05;;;;;;;-145.06;100.00;63404.56;10436317;28;20100;-84
2022/04/22 18:02:49;;;;;;;0.10;0.10;;;;;;;-145.06;100.00;63404.56;10410299;28;20095;-84
2022/04/22 18:07:50;;;;;;;0.10;0.10;;;;;;;-145.06;100.00;63404.56;10406423;28;20075;-85
2022/04/22 18:12:50;;;;;;;0.10;0.10;;;;;;;-145.06;100.00;63404.56;10417003;28;20029;-84
2022/04/22 18:17:51;;;;;;;0.10;0.10;;;;;;;-145.06;100.00;63404.56;10417724;28;20029;-84
2022/04/22 18:22:52;;;;;;;0.10;0.10;;;;;;;-145.06;100.00;63404.56;10415315;28;20033;-84
2022/04/22 18:27:52;;;;;;;0.10;0.10;;;;;;;-145.06;100.00;63404.56;10431660;28;20017;-85
2022/04/22 18:32:52;;;;;;;0.10;0.10;;;;;;;-145.06;100.00;63404.56;10436621;28;20037;-85
2022/04/22 18:37:53;;;;;;;0.10;0.10;;;;;;;-145.06;100.00;63404.56;10436775;28;20397;-85
2022/04/22 18:42:53;;;;;;;0.10;0.10;;;;;;;-145.06;100.00;63404.56;10433379;28;20018;-85
2022/04/22 18:47:56;;;;;;;0.10;0.10;;;;;;;-145.06;100.00;63404.56;10418664;28;20228;-85
2022/04/22 18:53:07;;;;;;;0.10;0.10;;;;;;;-145.06;100.00;63404.56;10429184;28;20067;-89
2022/04/22 18:58:17;;;;;;;0.10;0.10;;;;;;;-145.06;100.00;63404.56;10417646;28;20029;-89
2022/04/22 19:03:19;;;;;;;0.10;0.10;;;;;;;-145.06;100.00;63404.56;10425482;28;20025;-89
2022/04/22 19:08:20;;;;;;;0.10;0.10;;;;;;;-145.06;100.00;63404.56;10433226;28;20051;-89
2022/04/22 19:13:21;;;;;;;0.00;0.00;;;;;;;-145.06;100.00;63404.56;10429364;28;20037;-89
2022/04/22 19:18:22;;;;;;;0.10;0.10;;;;;;;-145.06;100.00;63404.56;10434926;28;20109;-89
2022/04/22 19:23:22;;;;;;;0.00;0.00;;;;;;;-145.06;100.00;63404.56;10430363;28;20499;-88
2022/04/22 19:28:23;;;;;;;0.10;0.10;;;;;;;-145.06;100.00;63404.56;10420745;28;20017;-89
2022/04/22 19:33:23;;;;;;;0.10;0.10;;;;;;;-145.06;100.00;63404.56;10436829;28;20028;-88
2022/04/22 19:43:43;;;;;;;0.00;0.00;;;;;;;-145.06;100.00;63404.56;10445326;28;20259;-89
2022/04/22 19:48:43;;;;;;;0.00;0.00;;;;;;;-145.06;100.00;63404.56;10437640;28;20014;-89
2022/04/22 19:53:52;;;;;;;0.00;0.00;;;;;;;-145.06;100.00;63404.56;10448384;28;20029;-88
2022/04/22 19:58:55;;;;;;;0.00;0.00;;;;;;;-145.06;100.00;63404.56;10433292;28;20034;-89
2022/04/22 20:03:56;;;;;;;0.00;0.00;;;;;;;-145.06;100.00;63404.56;10441630;28;20031;-88
2022/04/22 20:08:59;;;;;;;0.00;0.00;;;;;;;-145.06;100.00;63404.56;10431155;28;20060;-89
2022/04/22 20:13:59;;;;;;;0.00;0.00;;;;;;;-145.06;100.00;63404.56;10436724;28;20040;-88
2022/04/22 20:18:59;;;;;;;0.03;0.03;;;;;;;-145.06;100.00;63404.56;10434866;28;20025;-88
2022/04/22 20:24:00;;;;;;;0.10;0.10;;;;;;;-145.06;100.00;63404.56;10432700;28;20414;-89
2022/04/22 20:29:00;;;;;;;0.10;0.10;;;;;;;-145.06;100.00;63404.56;10441252;28;20033;-89
2022/04/22 20:34:04;;;;;;;0.10;0.10;;;;;;;-145.06;100.00;63404.56;10423599;28;20033;-88
2022/04/22 20:44:24;;;;;;;0.00;0.00;;;;;;;-145.06;100.00;63404.56;10442578;28;20112;-87
2022/04/22 20:49:24;;;;;;;0.00;0.00;;;;;;;-145.06;100.00;63404.56;10423581;28;20428;-88
2022/04/22 20:54:25;;;;;;;0.00;0.00;;;;;;;-145.06;100.00;63404.56;10428883;28;20021;-89
2022/04/22 20:59:27;;;;;;;0.10;0.10;;;;;;;-145.06;100.00;63404.56;10431032;28;20031;-88
2022/04/22 21:04:27;;;;;;;0.00;0.00;;;;;;;-145.06;100.00;63404.56;10430689;28;20271;-88
2022/04/22 21:09:27;;;;;;;0.10;0.10;;;;;;;-145.06;100.00;63404.56;10431546;28;20079;-88
2022/04/22 21:14:36;;;;;;;0.10;0.10;;;;;;;-145.06;100.00;63404.56;10430374;28;20033;-88
2022/04/22 21:19:37;;;;;;;0.10;0.10;;;;;;;-145.06;100.00;63404.56;10430412;28;20652;-88
2022/04/22 21:24:37;;;;;;;0.08;0.08;;;;;;;-145.06;100.00;63404.56;10432528;28;20105;-88
2022/04/22 21:29:38;;;;;;;0.10;0.10;;;;;;;-145.06;100.00;63404.56;10431654;28;20643;-89
2022/04/22 21:34:38;;;;;;;0.00;0.00;;;;;;;-145.06;100.00;63404.56;10427469;28;20029;-88
2022/04/22 21:39:38;;;;;;;0.03;0.03;;;;;;;-145.06;100.00;63404.56;10429686;28;20021;-89
2022/04/22 21:44:42;;;;;;;0.00;0.00;;;;;;;-145.06;100.00;63404.56;10427720;28;20037;-89
2022/04/22 21:49:43;;;;;;;0.07;0.07;;;;;;;-145.06;100.00;63404.56;10429846;28;20049;-88
2022/04/22 21:54:47;;;;;;;0.00;0.00;;;;;;;-145.06;100.00;63404.56;10444738;28;20025;-89
2022/04/22 21:59:51;;;;;;;0.00;0.00;;;;;;;-145.06;100.00;63404.56;10426854;28;20052;-88
2022/04/22 22:04:51;;;;;;;0.10;0.10;;;;;;;-145.06;100.00;63404.56;10428550;28;20043;-88
2022/04/22 22:09:52;;;;;;;0.00;0.00;;;;;;;-145.06;100.00;63404.56;10438490;28;20029;-88
2022/04/22 22:14:52;;;;;;;0.00;0.00;;;;;;;-145.06;100.00;63404.56;10428981;28;20108;-88
2022/04/22 22:19:53;;;;;;;0.00;0.00;;;;;;;-145.06;100.00;63404.56;10428089;28;20029;-88
2022/04/22 22:24:54;;;;;;;0.03;0.03;;;;;;;-145.06;100.00;63404.56;10431255;28;20079;-88
2022/04/22 22:29:54;;;;;;;0.00;0.00;;;;;;;-145.06;100.00;63404.56;10426234;28;20017;-88
2022/04/22 22:35:06;;;;;;;0.00;0.00;;;;;;;-145.06;100.00;63404.56;10425910;28;20112;-87
2022/04/22 22:40:07;;;;;;;0.00;0.00;;;;;;;-145.06;100.00;63404.56;10422497;28;20084;-88
2022/04/22 22:45:08;;;;;;;0.00;0.00;;;;;;;-145.06;100.00;63404.56;10423136;28;20025;-88
2022/04/22 22:50:09;;;;;;;0.00;0.00;;;;;;;-145.06;100.00;63404.56;10427572;28;20021;-87
2022/04/22 22:55:09;;;;;;;0.00;0.00;;;;;;;-145.06;100.00;63404.56;10424059;28;20079;-88
2022/04/22 23:00:13;;;;;;;0.08;0.08;;;;;;;-145.06;100.00;63404.56;10434090;28;20014;-88
2022/04/22 23:05:13;;;;;;;0.00;0.00;;;;;;;-145.06;100.00;63404.56;10428222;28;20021;-90
2022/04/22 23:10:13;;;;;;;0.00;0.00;;;;;;;-145.06;100.00;63404.56;10434999;28;20013;-89
2022/04/22 23:15:14;;;;;;;0.00;0.00;;;;;;;-145.06;100.00;63404.56;10432425;28;20025;-89
2022/04/22 23:20:15;;;;;;;0.10;0.10;;;;;;;-145.06;100.00;63404.56;10437519;28;20021;-89
2022/04/22 23:25:15;;;;;;;0.00;0.00;;;;;;;-145.06;100.00;63404.56;10434763;28;20043;-89
2022/04/22 23:30:18;;;;;;;0.00;0.00;;;;;;;-145.06;100.00;63404.56;10431747;28;20112;-88
2022/04/22 23:35:19;;;;;;;0.05;0.05;;;;;;;-145.06;100.00;63404.56;10430729;28;20044;-88
2022/04/22 23:40:19;;;;;;;0.10;0.10;;;;;;;-145.06;100.00;63404.56;10430746;28;20096;-87
2022/04/22 23:45:20;;;;;;;0.00;0.00;;;;;;;-145.06;100.00;63404.56;10449712;28;20021;-88
2022/04/22 23:50:20;;;;;;;0.00;0.00;;;;;;;-145.06;100.00;63404.56;10432971;28;20083;-89
2022/04/22 23:55:20;;;;;;;0.00;0.00;;;;;;;-145.06;100.00;63404.56;10432420;28;20266;-89
